sensor_id;sensor_type;location;lat;lon;timestamp;P1;durP1;ratioP1;P2;durP2;ratioP2
24743;SDS011;12844;52.110;5.548;2022-11-15T00:00:20;8.48;;;6.18;;
24743;SDS011;12844;52.110;5.548;2022-11-15T00:02:45;7.05;;;6.07;;
24743;SDS011;12844;52.110;5.548;2022-11-15T00:05:11;9.38;;;6.03;;
24743;SDS011;12844;52.110;5.548;2022-11-15T00:07:36;7.47;;;6.25;;
24743;SDS011;12844;52.110;5.548;2022-11-15T00:10:02;7.53;;;6.18;;
24743;SDS011;12844;52.110;5.548;2022-11-15T00:12:28;7.43;;;6.63;;
24743;SDS011;12844;52.110;5.548;2022-11-15T00:14:54;7.90;;;6.30;;
24743;SDS011;12844;52.110;5.548;2022-11-15T00:17:19;7.28;;;5.97;;
24743;SDS011;12844;52.110;5.548;2022-11-15T00:19:45;7.40;;;6.53;;
24743;SDS011;12844;52.110;5.548;2022-11-15T00:22:10;7.55;;;5.93;;
24743;SDS011;12844;52.110;5.548;2022-11-15T00:24:36;9.13;;;7.05;;
24743;SDS011;12844;52.110;5.548;2022-11-15T00:27:01;7.60;;;6.18;;
24743;SDS011;12844;52.110;5.548;2022-11-15T00:29:27;8.65;;;6.32;;
24743;SDS011;12844;52.110;5.548;2022-11-15T00:31:52;8.25;;;7.00;;
24743;SDS011;12844;52.110;5.548;2022-11-15T00:34:18;8.85;;;6.30;;
24743;SDS011;12844;52.110;5.548;2022-11-15T00:36:43;8.32;;;6.25;;
24743;SDS011;12844;52.110;5.548;2022-11-15T00:39:09;8.07;;;6.55;;
24743;SDS011;12844;52.110;5.548;2022-11-15T00:41:35;8.82;;;6.70;;
24743;SDS011;12844;52.110;5.548;2022-11-15T00:44:00;7.30;;;5.85;;
24743;SDS011;12844;52.110;5.548;2022-11-15T00:46:26;8.93;;;6.65;;
24743;SDS011;12844;52.110;5.548;2022-11-15T00:48:51;7.63;;;6.10;;
24743;SDS011;12844;52.110;5.548;2022-11-15T00:51:17;8.50;;;6.22;;
24743;SDS011;12844;52.110;5.548;2022-11-15T00:53:42;7.93;;;6.30;;
24743;SDS011;12844;52.110;5.548;2022-11-15T00:56:08;8.73;;;6.35;;
24743;SDS011;12844;52.110;5.548;2022-11-15T00:58:33;8.65;;;6.15;;
24743;SDS011;12844;52.110;5.548;2022-11-15T01:01:09;7.95;;;6.50;;
24743;SDS011;12844;52.110;5.548;2022-11-15T01:03:36;7.65;;;6.47;;
24743;SDS011;12844;52.110;5.548;2022-11-15T01:06:03;8.07;;;6.00;;
24743;SDS011;12844;52.110;5.548;2022-11-15T01:08:29;8.18;;;6.35;;
24743;SDS011;12844;52.110;5.548;2022-11-15T01:10:54;8.88;;;6.50;;
24743;SDS011;12844;52.110;5.548;2022-11-15T01:13:35;9.68;;;6.40;;
24743;SDS011;12844;52.110;5.548;2022-11-15T01:16:23;8.02;;;6.38;;
24743;SDS011;12844;52.110;5.548;2022-11-15T01:18:47;9.27;;;6.47;;
24743;SDS011;12844;52.110;5.548;2022-11-15T01:21:14;10.10;;;6.15;;
24743;SDS011;12844;52.110;5.548;2022-11-15T01:23:42;8.13;;;6.50;;
24743;SDS011;12844;52.110;5.548;2022-11-15T01:26:10;8.23;;;6.40;;
24743;SDS011;12844;52.110;5.548;2022-11-15T01:28:38;7.25;;;5.97;;
24743;SDS011;12844;52.110;5.548;2022-11-15T01:31:05;6.93;;;5.93;;
24743;SDS011;12844;52.110;5.548;2022-11-15T01:33:34;8.63;;;6.80;;
24743;SDS011;12844;52.110;5.548;2022-11-15T01:36:07;9.80;;;6.50;;
24743;SDS011;12844;52.110;5.548;2022-11-15T01:38:36;7.88;;;6.03;;
24743;SDS011;12844;52.110;5.548;2022-11-15T01:41:01;8.00;;;6.30;;
24743;SDS011;12844;52.110;5.548;2022-11-15T01:43:29;8.07;;;5.75;;
24743;SDS011;12844;52.110;5.548;2022-11-15T01:45:58;7.13;;;6.22;;
24743;SDS011;12844;52.110;5.548;2022-11-15T01:48:34;7.97;;;6.00;;
24743;SDS011;12844;52.110;5.548;2022-11-15T01:51:01;7.70;;;6.43;;
24743;SDS011;12844;52.110;5.548;2022-11-15T01:53:31;8.88;;;6.45;;
24743;SDS011;12844;52.110;5.548;2022-11-15T01:55:58;7.68;;;6.50;;
24743;SDS011;12844;52.110;5.548;2022-11-15T01:58:27;8.05;;;6.18;;
24743;SDS011;12844;52.110;5.548;2022-11-15T02:00:52;8.30;;;6.18;;
24743;SDS011;12844;52.110;5.548;2022-11-15T02:03:18;8.93;;;6.65;;
24743;SDS011;12844;52.110;5.548;2022-11-15T02:05:45;8.05;;;6.53;;
24743;SDS011;12844;52.110;5.548;2022-11-15T02:08:10;8.57;;;6.68;;
24743;SDS011;12844;52.110;5.548;2022-11-15T02:10:44;8.05;;;6.20;;
24743;SDS011;12844;52.110;5.548;2022-11-15T02:13:13;8.82;;;6.70;;
24743;SDS011;12844;52.110;5.548;2022-11-15T02:15:43;7.45;;;6.07;;
24743;SDS011;12844;52.110;5.548;2022-11-15T02:18:35;7.53;;;5.75;;
24743;SDS011;12844;52.110;5.548;2022-11-15T02:21:11;7.28;;;6.25;;
24743;SDS011;12844;52.110;5.548;2022-11-15T02:26:34;7.60;;;6.05;;
24743;SDS011;12844;52.110;5.548;2022-11-15T02:29:37;7.47;;;6.07;;
24743;SDS011;12844;52.110;5.548;2022-11-15T02:32:29;7.47;;;6.10;;
24743;SDS011;12844;52.110;5.548;2022-11-15T02:35:10;7.88;;;6.05;;
24743;SDS011;12844;52.110;5.548;2022-11-15T02:38:05;8.73;;;6.22;;
24743;SDS011;12844;52.110;5.548;2022-11-15T02:43:08;8.77;;;6.25;;
24743;SDS011;12844;52.110;5.548;2022-11-15T02:45:56;8.27;;;5.88;;
24743;SDS011;12844;52.110;5.548;2022-11-15T02:48:31;7.00;;;5.75;;
24743;SDS011;12844;52.110;5.548;2022-11-15T02:50:58;7.25;;;5.72;;
24743;SDS011;12844;52.110;5.548;2022-11-15T02:53:25;7.90;;;5.80;;
24743;SDS011;12844;52.110;5.548;2022-11-15T02:55:51;7.85;;;5.30;;
24743;SDS011;12844;52.110;5.548;2022-11-15T03:07:00;5.93;;;5.03;;
24743;SDS011;12844;52.110;5.548;2022-11-15T03:09:46;6.78;;;5.20;;
24743;SDS011;12844;52.110;5.548;2022-11-15T03:12:37;8.25;;;5.03;;
24743;SDS011;12844;52.110;5.548;2022-11-15T03:17:52;5.95;;;4.95;;
24743;SDS011;12844;52.110;5.548;2022-11-15T03:20:22;6.50;;;4.97;;
24743;SDS011;12844;52.110;5.548;2022-11-15T03:22:50;6.97;;;5.13;;
24743;SDS011;12844;52.110;5.548;2022-11-15T03:25:19;6.47;;;4.93;;
24743;SDS011;12844;52.110;5.548;2022-11-15T03:27:48;7.55;;;5.25;;
24743;SDS011;12844;52.110;5.548;2022-11-15T03:30:17;5.47;;;4.68;;
24743;SDS011;12844;52.110;5.548;2022-11-15T03:32:47;6.03;;;4.72;;
24743;SDS011;12844;52.110;5.548;2022-11-15T03:35:18;6.28;;;4.88;;
24743;SDS011;12844;52.110;5.548;2022-11-15T03:40:39;5.75;;;4.63;;
24743;SDS011;12844;52.110;5.548;2022-11-15T03:45:43;5.75;;;4.72;;
24743;SDS011;12844;52.110;5.548;2022-11-15T03:48:26;5.68;;;4.55;;
24743;SDS011;12844;52.110;5.548;2022-11-15T03:50:55;6.10;;;4.80;;
24743;SDS011;12844;52.110;5.548;2022-11-15T03:53:21;5.75;;;4.90;;
24743;SDS011;12844;52.110;5.548;2022-11-15T03:55:47;7.95;;;5.22;;
24743;SDS011;12844;52.110;5.548;2022-11-15T03:58:12;5.50;;;4.70;;
24743;SDS011;12844;52.110;5.548;2022-11-15T04:00:38;6.47;;;4.85;;
24743;SDS011;12844;52.110;5.548;2022-11-15T04:03:03;6.03;;;4.90;;
24743;SDS011;12844;52.110;5.548;2022-11-15T04:05:29;6.05;;;4.70;;
24743;SDS011;12844;52.110;5.548;2022-11-15T04:07:54;5.38;;;4.88;;
24743;SDS011;12844;52.110;5.548;2022-11-15T04:10:20;6.07;;;4.82;;
24743;SDS011;12844;52.110;5.548;2022-11-15T04:12:45;6.07;;;4.68;;
24743;SDS011;12844;52.110;5.548;2022-11-15T04:15:13;6.10;;;4.80;;
24743;SDS011;12844;52.110;5.548;2022-11-15T04:17:44;5.75;;;4.43;;
24743;SDS011;12844;52.110;5.548;2022-11-15T04:20:18;6.45;;;5.10;;
24743;SDS011;12844;52.110;5.548;2022-11-15T04:23:13;5.55;;;4.60;;
24743;SDS011;12844;52.110;5.548;2022-11-15T04:26:03;6.22;;;4.82;;
24743;SDS011;12844;52.110;5.548;2022-11-15T04:28:36;4.90;;;4.40;;
24743;SDS011;12844;52.110;5.548;2022-11-15T04:31:21;5.00;;;4.50;;
24743;SDS011;12844;52.110;5.548;2022-11-15T04:33:46;5.28;;;4.38;;
24743;SDS011;12844;52.110;5.548;2022-11-15T04:36:12;5.60;;;4.55;;
24743;SDS011;12844;52.110;5.548;2022-11-15T04:38:56;5.28;;;4.50;;
24743;SDS011;12844;52.110;5.548;2022-11-15T04:41:21;5.18;;;4.60;;
24743;SDS011;12844;52.110;5.548;2022-11-15T04:43:47;6.25;;;4.72;;
24743;SDS011;12844;52.110;5.548;2022-11-15T04:46:12;6.18;;;4.53;;
24743;SDS011;12844;52.110;5.548;2022-11-15T04:48:38;5.45;;;4.88;;
24743;SDS011;12844;52.110;5.548;2022-11-15T04:51:03;5.93;;;4.75;;
24743;SDS011;12844;52.110;5.548;2022-11-15T04:53:29;5.28;;;4.30;;
24743;SDS011;12844;52.110;5.548;2022-11-15T04:55:55;5.30;;;4.63;;
24743;SDS011;12844;52.110;5.548;2022-11-15T04:58:20;5.10;;;4.60;;
24743;SDS011;12844;52.110;5.548;2022-11-15T05:00:46;5.78;;;4.78;;
24743;SDS011;12844;52.110;5.548;2022-11-15T05:03:11;5.57;;;4.65;;
24743;SDS011;12844;52.110;5.548;2022-11-15T05:05:56;5.60;;;4.22;;
24743;SDS011;12844;52.110;5.548;2022-11-15T05:08:22;5.32;;;4.45;;
24743;SDS011;12844;52.110;5.548;2022-11-15T05:10:48;5.00;;;4.32;;
24743;SDS011;12844;52.110;5.548;2022-11-15T05:13:13;4.65;;;4.05;;
24743;SDS011;12844;52.110;5.548;2022-11-15T05:15:39;4.93;;;4.40;;
24743;SDS011;12844;52.110;5.548;2022-11-15T05:18:04;5.15;;;4.10;;
24743;SDS011;12844;52.110;5.548;2022-11-15T05:20:30;5.00;;;4.50;;
24743;SDS011;12844;52.110;5.548;2022-11-15T05:22:55;5.45;;;4.70;;
24743;SDS011;12844;52.110;5.548;2022-11-15T05:25:21;5.25;;;4.60;;
24743;SDS011;12844;52.110;5.548;2022-11-15T05:27:47;5.43;;;4.63;;
24743;SDS011;12844;52.110;5.548;2022-11-15T05:30:13;5.13;;;4.63;;
24743;SDS011;12844;52.110;5.548;2022-11-15T05:32:39;5.35;;;4.63;;
24743;SDS011;12844;52.110;5.548;2022-11-15T05:35:05;6.65;;;4.70;;
24743;SDS011;12844;52.110;5.548;2022-11-15T05:37:33;4.93;;;4.43;;
24743;SDS011;12844;52.110;5.548;2022-11-15T05:39:59;5.35;;;4.40;;
24743;SDS011;12844;52.110;5.548;2022-11-15T05:42:24;5.75;;;4.70;;
24743;SDS011;12844;52.110;5.548;2022-11-15T05:44:51;5.68;;;4.65;;
24743;SDS011;12844;52.110;5.548;2022-11-15T05:47:21;6.22;;;4.65;;
24743;SDS011;12844;52.110;5.548;2022-11-15T05:49:50;5.55;;;4.72;;
24743;SDS011;12844;52.110;5.548;2022-11-15T05:52:18;5.43;;;4.45;;
24743;SDS011;12844;52.110;5.548;2022-11-15T05:54:47;4.78;;;4.28;;
24743;SDS011;12844;52.110;5.548;2022-11-15T05:57:14;5.10;;;4.53;;
24743;SDS011;12844;52.110;5.548;2022-11-15T05:59:40;5.97;;;4.82;;
24743;SDS011;12844;52.110;5.548;2022-11-15T06:02:08;5.00;;;4.50;;
24743;SDS011;12844;52.110;5.548;2022-11-15T06:04:34;6.05;;;4.93;;
24743;SDS011;12844;52.110;5.548;2022-11-15T06:07:00;5.45;;;4.47;;
24743;SDS011;12844;52.110;5.548;2022-11-15T06:09:25;5.18;;;4.47;;
24743;SDS011;12844;52.110;5.548;2022-11-15T06:11:51;5.05;;;4.30;;
24743;SDS011;12844;52.110;5.548;2022-11-15T06:14:16;5.28;;;4.57;;
24743;SDS011;12844;52.110;5.548;2022-11-15T06:16:42;5.03;;;4.50;;
24743;SDS011;12844;52.110;5.548;2022-11-15T06:19:08;5.43;;;4.78;;
24743;SDS011;12844;52.110;5.548;2022-11-15T06:21:34;5.15;;;4.60;;
24743;SDS011;12844;52.110;5.548;2022-11-15T06:24:00;4.80;;;4.30;;
24743;SDS011;12844;52.110;5.548;2022-11-15T06:26:26;5.32;;;4.53;;
24743;SDS011;12844;52.110;5.548;2022-11-15T06:28:51;5.05;;;4.55;;
24743;SDS011;12844;52.110;5.548;2022-11-15T06:31:17;4.78;;;4.15;;
24743;SDS011;12844;52.110;5.548;2022-11-15T06:33:42;5.05;;;4.55;;
24743;SDS011;12844;52.110;5.548;2022-11-15T06:36:09;5.07;;;4.28;;
24743;SDS011;12844;52.110;5.548;2022-11-15T06:38:38;5.22;;;4.72;;
24743;SDS011;12844;52.110;5.548;2022-11-15T06:41:04;5.65;;;4.85;;
24743;SDS011;12844;52.110;5.548;2022-11-15T06:43:32;4.82;;;4.13;;
24743;SDS011;12844;52.110;5.548;2022-11-15T06:45:58;6.07;;;4.45;;
24743;SDS011;12844;52.110;5.548;2022-11-15T06:48:24;4.53;;;4.13;;
24743;SDS011;12844;52.110;5.548;2022-11-15T06:50:51;5.28;;;4.65;;
24743;SDS011;12844;52.110;5.548;2022-11-15T06:53:20;5.35;;;4.40;;
24743;SDS011;12844;52.110;5.548;2022-11-15T06:55:46;5.40;;;4.38;;
24743;SDS011;12844;52.110;5.548;2022-11-15T06:58:11;5.00;;;4.50;;
24743;SDS011;12844;52.110;5.548;2022-11-15T07:00:37;4.97;;;4.47;;
24743;SDS011;12844;52.110;5.548;2022-11-15T07:03:03;5.30;;;4.57;;
24743;SDS011;12844;52.110;5.548;2022-11-15T07:05:29;5.28;;;4.38;;
24743;SDS011;12844;52.110;5.548;2022-11-15T07:07:55;4.68;;;4.18;;
24743;SDS011;12844;52.110;5.548;2022-11-15T07:10:21;5.55;;;4.53;;
24743;SDS011;12844;52.110;5.548;2022-11-15T07:12:49;5.60;;;4.57;;
24743;SDS011;12844;52.110;5.548;2022-11-15T07:15:15;4.88;;;4.38;;
24743;SDS011;12844;52.110;5.548;2022-11-15T07:17:41;5.03;;;3.97;;
24743;SDS011;12844;52.110;5.548;2022-11-15T07:20:07;5.07;;;3.97;;
24743;SDS011;12844;52.110;5.548;2022-11-15T07:22:33;5.18;;;4.57;;
24743;SDS011;12844;52.110;5.548;2022-11-15T07:24:59;4.43;;;4.00;;
24743;SDS011;12844;52.110;5.548;2022-11-15T07:27:24;5.00;;;4.50;;
24743;SDS011;12844;52.110;5.548;2022-11-15T07:29:50;4.75;;;3.90;;
24743;SDS011;12844;52.110;5.548;2022-11-15T07:32:15;5.13;;;4.20;;
24743;SDS011;12844;52.110;5.548;2022-11-15T07:34:41;4.43;;;4.03;;
24743;SDS011;12844;52.110;5.548;2022-11-15T07:37:07;5.43;;;4.47;;
24743;SDS011;12844;52.110;5.548;2022-11-15T07:39:32;4.97;;;4.45;;
24743;SDS011;12844;52.110;5.548;2022-11-15T07:41:58;5.13;;;4.63;;
24743;SDS011;12844;52.110;5.548;2022-11-15T07:44:43;5.55;;;4.30;;
24743;SDS011;12844;52.110;5.548;2022-11-15T07:47:08;4.90;;;4.38;;
24743;SDS011;12844;52.110;5.548;2022-11-15T07:49:34;5.03;;;4.38;;
24743;SDS011;12844;52.110;5.548;2022-11-15T07:51:59;5.03;;;4.50;;
24743;SDS011;12844;52.110;5.548;2022-11-15T07:54:25;4.47;;;3.80;;
24743;SDS011;12844;52.110;5.548;2022-11-15T07:56:50;5.45;;;4.15;;
24743;SDS011;12844;52.110;5.548;2022-11-15T07:59:16;4.90;;;4.40;;
24743;SDS011;12844;52.110;5.548;2022-11-15T08:01:41;5.05;;;4.15;;
24743;SDS011;12844;52.110;5.548;2022-11-15T08:04:07;4.47;;;4.00;;
24743;SDS011;12844;52.110;5.548;2022-11-15T08:06:32;5.78;;;4.28;;
24743;SDS011;12844;52.110;5.548;2022-11-15T08:08:58;5.63;;;4.47;;
24743;SDS011;12844;52.110;5.548;2022-11-15T08:11:23;5.25;;;4.18;;
24743;SDS011;12844;52.110;5.548;2022-11-15T08:13:49;4.85;;;4.20;;
24743;SDS011;12844;52.110;5.548;2022-11-15T08:16:14;4.95;;;4.20;;
24743;SDS011;12844;52.110;5.548;2022-11-15T08:18:40;6.18;;;4.60;;
24743;SDS011;12844;52.110;5.548;2022-11-15T08:21:05;5.97;;;4.40;;
24743;SDS011;12844;52.110;5.548;2022-11-15T08:23:31;8.20;;;4.10;;
24743;SDS011;12844;52.110;5.548;2022-11-15T08:26:00;5.13;;;3.88;;
24743;SDS011;12844;52.110;5.548;2022-11-15T08:28:27;5.10;;;3.90;;
24743;SDS011;12844;52.110;5.548;2022-11-15T08:30:54;5.30;;;3.72;;
24743;SDS011;12844;52.110;5.548;2022-11-15T08:33:19;4.88;;;3.85;;
24743;SDS011;12844;52.110;5.548;2022-11-15T08:35:45;4.78;;;3.60;;
24743;SDS011;12844;52.110;5.548;2022-11-15T08:38:11;6.65;;;4.32;;
24743;SDS011;12844;52.110;5.548;2022-11-15T08:40:36;4.47;;;3.65;;
24743;SDS011;12844;52.110;5.548;2022-11-15T08:43:02;4.80;;;3.78;;
24743;SDS011;12844;52.110;5.548;2022-11-15T08:45:28;6.30;;;3.40;;
24743;SDS011;12844;52.110;5.548;2022-11-15T08:47:55;5.70;;;3.78;;
24743;SDS011;12844;52.110;5.548;2022-11-15T08:50:20;4.68;;;3.53;;
24743;SDS011;12844;52.110;5.548;2022-11-15T08:52:46;4.47;;;3.30;;
24743;SDS011;12844;52.110;5.548;2022-11-15T08:55:13;8.35;;;3.05;;
24743;SDS011;12844;52.110;5.548;2022-11-15T08:57:39;5.10;;;3.67;;
24743;SDS011;12844;52.110;5.548;2022-11-15T09:00:05;4.68;;;3.25;;
24743;SDS011;12844;52.110;5.548;2022-11-15T09:12:52;4.78;;;3.28;;
24743;SDS011;12844;52.110;5.548;2022-11-15T09:15:18;6.22;;;3.50;;
24743;SDS011;12844;52.110;5.548;2022-11-15T09:17:44;4.20;;;3.13;;
24743;SDS011;12844;52.110;5.548;2022-11-15T09:20:10;5.65;;;3.10;;
24743;SDS011;12844;52.110;5.548;2022-11-15T09:22:35;8.88;;;3.42;;
24743;SDS011;12844;52.110;5.548;2022-11-15T09:25:01;4.80;;;3.17;;
24743;SDS011;12844;52.110;5.548;2022-11-15T09:27:30;5.97;;;3.13;;
24743;SDS011;12844;52.110;5.548;2022-11-15T09:29:56;4.32;;;3.20;;
24743;SDS011;12844;52.110;5.548;2022-11-15T09:32:22;4.60;;;3.38;;
24743;SDS011;12844;52.110;5.548;2022-11-15T09:34:51;4.07;;;3.00;;
24743;SDS011;12844;52.110;5.548;2022-11-15T09:37:16;4.70;;;3.58;;
24743;SDS011;12844;52.110;5.548;2022-11-15T09:39:42;4.88;;;3.38;;
24743;SDS011;12844;52.110;5.548;2022-11-15T09:50:49;4.60;;;3.20;;
24743;SDS011;12844;52.110;5.548;2022-11-15T09:53:21;4.63;;;3.35;;
24743;SDS011;12844;52.110;5.548;2022-11-15T09:56:03;6.18;;;3.50;;
24743;SDS011;12844;52.110;5.548;2022-11-15T09:58:44;5.28;;;3.58;;
24743;SDS011;12844;52.110;5.548;2022-11-15T10:04:15;5.65;;;3.17;;
24743;SDS011;12844;52.110;5.548;2022-11-15T10:06:43;5.45;;;3.58;;
24743;SDS011;12844;52.110;5.548;2022-11-15T10:09:26;4.05;;;3.33;;
24743;SDS011;12844;52.110;5.548;2022-11-15T10:11:58;3.60;;;2.97;;
24743;SDS011;12844;52.110;5.548;2022-11-15T10:14:25;7.00;;;3.30;;
24743;SDS011;12844;52.110;5.548;2022-11-15T10:17:19;4.93;;;3.13;;
24743;SDS011;12844;52.110;5.548;2022-11-15T10:22:28;6.25;;;3.20;;
24743;SDS011;12844;52.110;5.548;2022-11-15T10:27:51;6.00;;;3.22;;
24743;SDS011;12844;52.110;5.548;2022-11-15T10:30:19;4.53;;;3.17;;
24743;SDS011;12844;52.110;5.548;2022-11-15T10:32:46;5.70;;;3.10;;
24743;SDS011;12844;52.110;5.548;2022-11-15T10:35:17;4.18;;;2.95;;
24743;SDS011;12844;52.110;5.548;2022-11-15T10:38:07;4.63;;;3.00;;
24743;SDS011;12844;52.110;5.548;2022-11-15T10:40:34;4.38;;;3.28;;
24743;SDS011;12844;52.110;5.548;2022-11-15T10:45:35;5.55;;;2.60;;
24743;SDS011;12844;52.110;5.548;2022-11-15T10:50:36;3.40;;;2.88;;
24743;SDS011;12844;52.110;5.548;2022-11-15T10:53:03;3.28;;;2.53;;
24743;SDS011;12844;52.110;5.548;2022-11-15T10:55:37;4.20;;;2.70;;
24743;SDS011;12844;52.110;5.548;2022-11-15T10:58:19;6.18;;;3.00;;
24743;SDS011;12844;52.110;5.548;2022-11-15T11:00:48;3.97;;;2.85;;
24743;SDS011;12844;52.110;5.548;2022-11-15T11:03:27;3.97;;;2.85;;
24743;SDS011;12844;52.110;5.548;2022-11-15T11:06:10;4.88;;;2.75;;
24743;SDS011;12844;52.110;5.548;2022-11-15T11:08:38;3.97;;;2.67;;
24743;SDS011;12844;52.110;5.548;2022-11-15T11:11:04;3.70;;;2.92;;
24743;SDS011;12844;52.110;5.548;2022-11-15T11:13:37;5.53;;;2.80;;
24743;SDS011;12844;52.110;5.548;2022-11-15T11:18:45;4.55;;;2.78;;
24743;SDS011;12844;52.110;5.548;2022-11-15T11:21:32;4.35;;;2.67;;
24743;SDS011;12844;52.110;5.548;2022-11-15T11:24:08;3.50;;;2.58;;
24743;SDS011;12844;52.110;5.548;2022-11-15T11:26:57;3.90;;;2.40;;
24743;SDS011;12844;52.110;5.548;2022-11-15T11:29:45;5.40;;;2.35;;
24743;SDS011;12844;52.110;5.548;2022-11-15T11:35:38;5.22;;;2.83;;
24743;SDS011;12844;52.110;5.548;2022-11-15T11:41:38;4.68;;;2.70;;
24743;SDS011;12844;52.110;5.548;2022-11-15T11:49:36;6.55;;;3.20;;
24743;SDS011;12844;52.110;5.548;2022-11-15T12:00:19;4.50;;;2.78;;
24743;SDS011;12844;52.110;5.548;2022-11-15T12:05:22;5.35;;;2.80;;
24743;SDS011;12844;52.110;5.548;2022-11-15T12:08:01;5.05;;;3.05;;
24743;SDS011;12844;52.110;5.548;2022-11-15T12:10:34;5.93;;;2.80;;
24743;SDS011;12844;52.110;5.548;2022-11-15T12:13:11;4.35;;;2.78;;
24743;SDS011;12844;52.110;5.548;2022-11-15T12:18:15;5.43;;;3.05;;
24743;SDS011;12844;52.110;5.548;2022-11-15T12:20:47;7.40;;;2.92;;
24743;SDS011;12844;52.110;5.548;2022-11-15T12:23:23;5.00;;;2.78;;
24743;SDS011;12844;52.110;5.548;2022-11-15T12:28:47;6.97;;;3.13;;
24743;SDS011;12844;52.110;5.548;2022-11-15T12:34:02;5.85;;;2.45;;
24743;SDS011;12844;52.110;5.548;2022-11-15T12:36:33;5.95;;;3.28;;
24743;SDS011;12844;52.110;5.548;2022-11-15T12:41:29;9.40;;;3.20;;
24743;SDS011;12844;52.110;5.548;2022-11-15T12:44:00;5.53;;;2.85;;
24743;SDS011;12844;52.110;5.548;2022-11-15T13:02:35;9.23;;;3.00;;
24743;SDS011;12844;52.110;5.548;2022-11-15T13:17:39;4.45;;;2.42;;
24743;SDS011;12844;52.110;5.548;2022-11-15T13:22:39;5.40;;;2.78;;
24743;SDS011;12844;52.110;5.548;2022-11-15T13:27:52;4.95;;;2.38;;
24743;SDS011;12844;52.110;5.548;2022-11-15T13:30:20;4.65;;;2.30;;
24743;SDS011;12844;52.110;5.548;2022-11-15T13:32:48;9.35;;;2.83;;
24743;SDS011;12844;52.110;5.548;2022-11-15T13:35:18;7.13;;;2.58;;
24743;SDS011;12844;52.110;5.548;2022-11-15T13:37:46;4.50;;;2.30;;
24743;SDS011;12844;52.110;5.548;2022-11-15T13:42:45;4.85;;;2.30;;
24743;SDS011;12844;52.110;5.548;2022-11-15T13:45:13;5.10;;;2.30;;
24743;SDS011;12844;52.110;5.548;2022-11-15T13:47:40;4.72;;;2.40;;
24743;SDS011;12844;52.110;5.548;2022-11-15T13:50:06;4.32;;;2.25;;
24743;SDS011;12844;52.110;5.548;2022-11-15T13:52:35;5.07;;;2.10;;
24743;SDS011;12844;52.110;5.548;2022-11-15T14:05:40;4.65;;;2.17;;
24743;SDS011;12844;52.110;5.548;2022-11-15T14:10:40;3.92;;;2.28;;
24743;SDS011;12844;52.110;5.548;2022-11-15T14:13:10;4.32;;;2.20;;
24743;SDS011;12844;52.110;5.548;2022-11-15T14:15:52;4.15;;;2.00;;
24743;SDS011;12844;52.110;5.548;2022-11-15T14:21:07;4.55;;;2.20;;
24743;SDS011;12844;52.110;5.548;2022-11-15T14:23:33;5.05;;;2.10;;
24743;SDS011;12844;52.110;5.548;2022-11-15T14:25:59;5.47;;;2.05;;
24743;SDS011;12844;52.110;5.548;2022-11-15T14:30:51;3.72;;;1.92;;
24743;SDS011;12844;52.110;5.548;2022-11-15T14:33:22;7.05;;;2.30;;
24743;SDS011;12844;52.110;5.548;2022-11-15T14:35:53;5.88;;;2.50;;
24743;SDS011;12844;52.110;5.548;2022-11-15T14:38:20;6.88;;;2.08;;
24743;SDS011;12844;52.110;5.548;2022-11-15T14:40:46;5.72;;;2.15;;
24743;SDS011;12844;52.110;5.548;2022-11-15T14:43:12;4.63;;;1.92;;
24743;SDS011;12844;52.110;5.548;2022-11-15T14:45:38;5.70;;;2.00;;
24743;SDS011;12844;52.110;5.548;2022-11-15T14:48:04;3.60;;;1.90;;
24743;SDS011;12844;52.110;5.548;2022-11-15T14:50:30;3.53;;;1.55;;
24743;SDS011;12844;52.110;5.548;2022-11-15T14:52:57;5.93;;;2.13;;
24743;SDS011;12844;52.110;5.548;2022-11-15T14:55:27;4.10;;;1.70;;
24743;SDS011;12844;52.110;5.548;2022-11-15T14:57:56;4.68;;;1.85;;
24743;SDS011;12844;52.110;5.548;2022-11-15T15:00:22;2.35;;;1.85;;
24743;SDS011;12844;52.110;5.548;2022-11-15T15:02:48;4.97;;;2.17;;
24743;SDS011;12844;52.110;5.548;2022-11-15T15:05:24;5.85;;;2.00;;
24743;SDS011;12844;52.110;5.548;2022-11-15T15:07:54;5.93;;;2.00;;
24743;SDS011;12844;52.110;5.548;2022-11-15T15:10:20;5.43;;;1.90;;
24743;SDS011;12844;52.110;5.548;2022-11-15T15:12:46;3.97;;;1.90;;
24743;SDS011;12844;52.110;5.548;2022-11-15T15:15:16;3.38;;;1.73;;
24743;SDS011;12844;52.110;5.548;2022-11-15T15:17:48;3.67;;;1.90;;
24743;SDS011;12844;52.110;5.548;2022-11-15T15:20:14;3.40;;;1.75;;
24743;SDS011;12844;52.110;5.548;2022-11-15T15:22:40;2.75;;;1.60;;
24743;SDS011;12844;52.110;5.548;2022-11-15T15:27:48;2.47;;;1.38;;
24743;SDS011;12844;52.110;5.548;2022-11-15T15:30:14;3.65;;;1.83;;
24743;SDS011;12844;52.110;5.548;2022-11-15T15:32:39;3.22;;;1.90;;
24743;SDS011;12844;52.110;5.548;2022-11-15T15:35:05;2.63;;;1.52;;
24743;SDS011;12844;52.110;5.548;2022-11-15T15:37:31;2.50;;;1.65;;
24743;SDS011;12844;52.110;5.548;2022-11-15T15:39:58;3.42;;;1.88;;
24743;SDS011;12844;52.110;5.548;2022-11-15T15:42:23;4.00;;;1.80;;
24743;SDS011;12844;52.110;5.548;2022-11-15T15:44:49;3.22;;;1.55;;
24743;SDS011;12844;52.110;5.548;2022-11-15T15:47:17;2.70;;;1.60;;
24743;SDS011;12844;52.110;5.548;2022-11-15T15:49:44;3.65;;;1.50;;
24743;SDS011;12844;52.110;5.548;2022-11-15T15:52:10;4.53;;;1.63;;
24743;SDS011;12844;52.110;5.548;2022-11-15T15:54:36;2.97;;;1.35;;
24743;SDS011;12844;52.110;5.548;2022-11-15T15:57:03;4.57;;;2.00;;
24743;SDS011;12844;52.110;5.548;2022-11-15T15:59:29;4.60;;;1.55;;
24743;SDS011;12844;52.110;5.548;2022-11-15T16:01:55;4.40;;;1.30;;
24743;SDS011;12844;52.110;5.548;2022-11-15T16:04:20;9.27;;;1.95;;
24743;SDS011;12844;52.110;5.548;2022-11-15T16:06:46;5.22;;;1.67;;
24743;SDS011;12844;52.110;5.548;2022-11-15T16:09:15;6.00;;;1.67;;
24743;SDS011;12844;52.110;5.548;2022-11-15T16:11:43;4.55;;;1.60;;
24743;SDS011;12844;52.110;5.548;2022-11-15T16:14:09;8.02;;;1.58;;
24743;SDS011;12844;52.110;5.548;2022-11-15T16:16:35;4.47;;;1.90;;
24743;SDS011;12844;52.110;5.548;2022-11-15T16:19:02;3.83;;;1.65;;
24743;SDS011;12844;52.110;5.548;2022-11-15T16:21:28;5.07;;;1.73;;
24743;SDS011;12844;52.110;5.548;2022-11-15T16:23:54;13.90;;;1.85;;
24743;SDS011;12844;52.110;5.548;2022-11-15T16:26:20;4.38;;;1.98;;
24743;SDS011;12844;52.110;5.548;2022-11-15T16:28:49;4.07;;;1.58;;
24743;SDS011;12844;52.110;5.548;2022-11-15T16:31:14;3.53;;;1.70;;
24743;SDS011;12844;52.110;5.548;2022-11-15T16:33:43;4.75;;;1.73;;
24743;SDS011;12844;52.110;5.548;2022-11-15T16:36:15;3.33;;;1.63;;
24743;SDS011;12844;52.110;5.548;2022-11-15T16:38:46;4.22;;;1.75;;
24743;SDS011;12844;52.110;5.548;2022-11-15T16:41:12;6.13;;;1.63;;
24743;SDS011;12844;52.110;5.548;2022-11-15T16:43:39;3.28;;;1.70;;
24743;SDS011;12844;52.110;5.548;2022-11-15T16:46:14;7.30;;;2.28;;
24743;SDS011;12844;52.110;5.548;2022-11-15T16:48:42;3.42;;;2.00;;
24743;SDS011;12844;52.110;5.548;2022-11-15T16:51:08;3.45;;;1.75;;
24743;SDS011;12844;52.110;5.548;2022-11-15T16:53:34;4.57;;;1.73;;
24743;SDS011;12844;52.110;5.548;2022-11-15T16:56:00;6.20;;;1.70;;
24743;SDS011;12844;52.110;5.548;2022-11-15T16:58:26;5.00;;;2.00;;
24743;SDS011;12844;52.110;5.548;2022-11-15T17:00:52;3.88;;;1.55;;
24743;SDS011;12844;52.110;5.548;2022-11-15T17:03:19;5.13;;;1.90;;
24743;SDS011;12844;52.110;5.548;2022-11-15T17:05:45;5.35;;;1.67;;
24743;SDS011;12844;52.110;5.548;2022-11-15T17:08:11;3.65;;;1.90;;
24743;SDS011;12844;52.110;5.548;2022-11-15T17:10:38;3.55;;;1.63;;
24743;SDS011;12844;52.110;5.548;2022-11-15T17:13:10;3.20;;;1.77;;
24743;SDS011;12844;52.110;5.548;2022-11-15T17:15:37;4.28;;;2.22;;
24743;SDS011;12844;52.110;5.548;2022-11-15T17:18:02;4.50;;;1.50;;
24743;SDS011;12844;52.110;5.548;2022-11-15T17:20:28;5.25;;;1.80;;
24743;SDS011;12844;52.110;5.548;2022-11-15T17:22:54;3.95;;;1.65;;
24743;SDS011;12844;52.110;5.548;2022-11-15T17:25:20;2.58;;;1.80;;